Time;durP1;ratioP1;P1;durP2;ratioP2;P2;SDS_P1;SDS_P2;PMS_P1;PMS_P2;Temp;Humidity;BMP_temperature;BMP_pressure;BME280_temperature;BME280_humidity;BME280_pressure;Samples;Min_cycle;Max_cycle;Signal;HPM_P1;HPM_P2
2021/12/16 00:08:16;;;;;;;;;;;;;;;3.06;100.00;97695.00;5017970;28;19959;-79
2021/12/16 00:10:38;;;;;;;;;;;;;;;3.06;100.00;97700.19;5018711;28;19928;-79
2021/12/16 00:32:34;;;;;;;;;;;;;;;2.95;100.00;97700.44;5020537;28;19921;-76
2021/12/16 00:35:01;;;;;;;;;;;;;;;3.04;100.00;97702.13;5015535;28;19922;-75
2021/12/16 00:37:26;;;;;;;;;;;;;;;3.12;99.84;97697.81;5015353;28;20029;-75
2021/12/16 00:39:52;;;;;;;;;;;;;;;3.00;99.59;97698.19;5015166;28;19921;-76
2021/12/16 00:45:18;;;;;;;;;;;;;;;3.05;100.00;97698.56;5015337;28;19925;-76
2021/12/16 00:47:51;;;;;;;;;;;;;;;2.94;100.00;97697.03;5014542;28;20000;-76
2021/12/16 00:55:50;;;;;;;;;;;;;;;2.99;100.00;97696.56;4997601;28;19975;-75
2021/12/16 00:58:18;;;;;;;;;;;;;;;2.65;100.00;97702.47;5014279;28;20016;-76
2021/12/16 01:00:52;;;;;;;;;;;;;;;2.69;100.00;97697.78;4994605;28;19922;-76
2021/12/16 01:03:31;;;;;;;;;;;;;;;2.79;100.00;97709.72;4993100;28;19992;-76
2021/12/16 01:57:14;;;;;;;;;;;;;;;2.68;100.00;97717.75;4992998;28;19991;-78
2021/12/16 01:59:35;;;;;;;;;;;;;;;2.62;100.00;97713.97;5002685;28;20364;-77
2021/12/16 02:02:11;;;;;;;;;;;;;;;2.62;100.00;97707.97;5014353;28;19928;-77
2021/12/16 02:04:44;;;;;;;;;;;;;;;2.63;100.00;97709.59;5011261;28;20369;-75
2021/12/16 02:07:27;;;;;;;;;;;;;;;2.74;100.00;97711.97;5011728;28;19925;-77
2021/12/16 02:10:01;;;;;;;;;;;;;;;2.80;100.00;97718.38;5015263;28;19984;-77
2021/12/16 02:34:25;;;;;;;;;;;;;;;2.77;99.31;97727.25;5012224;28;19928;-76
2021/12/16 02:36:55;;;;;;;;;;;;;;;2.77;99.01;97722.06;5012054;28;20392;-76
2021/12/16 02:39:23;;;;;;;;;;;;;;;2.57;100.00;97705.81;5013101;28;19928;-77
2021/12/16 02:41:50;;;;;;;;;;;;;;;2.61;99.27;97708.94;5014473;28;19921;-77
2021/12/16 02:44:40;;;;;;;;;;;;;;;2.47;100.00;97714.63;5018591;28;20292;-77
2021/12/16 02:49:53;;;;;;;;;;;;;;;2.67;97.88;97716.13;5017608;28;19975;-76
2021/12/16 02:52:21;;;;;;;;;;;;;;;2.54;98.58;97720.88;5025259;28;19952;-76
2021/12/16 02:54:47;;;;;;;;;;;;;;;2.70;99.57;97720.22;5015241;28;19929;-76
2021/12/16 02:57:13;;;;;;;;;;;;;;;2.62;100.00;97720.94;5015210;28;20008;-76
2021/12/16 02:59:39;;;;;;;;;;;;;;;2.81;98.58;97720.81;5004430;28;20345;-76
2021/12/16 03:02:10;;;;;;;;;;;;;;;2.66;98.38;97721.47;4995368;28;19968;-76
2021/12/16 03:04:36;;;;;;;;;;;;;;;2.58;99.22;97717.00;4995473;28;19926;-75
2021/12/16 03:07:02;;;;;;;;;;;;;;;2.43;100.00;97727.13;4995481;28;19961;-75
2021/12/16 03:15:37;;;;;;;;;;;;;;;2.38;100.00;97718.94;4988440;28;19922;-76
2021/12/16 03:25:56;;;;;;;;;;;;;;;2.68;97.17;97725.56;5000188;28;20411;-76
2021/12/16 03:28:48;;;;;;;;;;;;;;;2.55;97.49;97717.31;4995537;28;19992;-76
2021/12/16 03:34:11;;;;;;;;;;;;;;;2.62;97.99;97720.94;4998300;28;19929;-77
2021/12/16 03:37:11;;;;;;;;;;;;;;;2.35;99.32;97722.63;5000519;28;20345;-75
2021/12/16 03:39:34;;;;;;;;;;;;;;;2.34;99.54;97720.19;4995332;28;19975;-74
2021/12/16 03:42:01;;;;;;;;;;;;;;;2.33;100.00;97724.56;4995567;28;19921;-76
2021/12/16 03:44:37;;;;;;;;;;;;;;;2.26;99.51;97723.53;4997403;28;20035;-76
2021/12/16 03:47:04;;;;;;;;;;;;;;;2.29;100.00;97725.81;4996210;28;19928;-77
2021/12/16 03:49:29;;;;;;;;;;;;;;;2.36;100.00;97724.25;5020019;28;19921;-77
2021/12/16 03:51:59;;;;;;;;;;;;;;;2.30;99.80;97731.84;5018626;28;19956;-77
2021/12/16 03:54:25;;;;;;;;;;;;;;;2.28;99.61;97724.19;5019856;28;19947;-77
2021/12/16 03:56:52;;;;;;;;;;;;;;;2.33;99.29;97734.97;5016932;28;19956;-76
2021/12/16 03:59:22;;;;;;;;;;;;;;;2.42;98.72;97722.84;5015899;28;19928;-76
2021/12/16 04:01:48;;;;;;;;;;;;;;;2.45;99.07;97721.75;5016137;28;19921;-77
2021/12/16 04:04:13;;;;;;;;;;;;;;;2.52;99.27;97722.81;5015558;28;19944;-76
2021/12/16 04:06:42;;;;;;;;;;;;;;;2.48;98.77;97721.47;5014872;28;20361;-75
2021/12/16 04:09:11;;;;;;;;;;;;;;;2.44;99.24;97735.72;5016325;28;20019;-77
2021/12/16 04:11:42;;;;;;;;;;;;;;;2.41;98.93;97736.00;5015261;28;19921;-77
2021/12/16 04:14:09;;;;;;;;;;;;;;;2.39;99.44;97733.56;5014483;28;20000;-77
2021/12/16 04:16:38;;;;;;;;;;;;;;;2.49;100.00;97729.13;5014586;28;19990;-75
2021/12/16 04:19:09;;;;;;;;;;;;;;;2.47;99.75;97730.22;5015177;28;19922;-76
2021/12/16 04:21:37;;;;;;;;;;;;;;;2.51;99.09;97737.56;5014456;28;20401;-76
2021/12/16 04:24:05;;;;;;;;;;;;;;;2.47;99.37;97743.19;5014619;28;19948;-75
2021/12/16 04:26:31;;;;;;;;;;;;;;;2.42;99.56;97750.63;5013303;28;19993;-76
2021/12/16 04:28:57;;;;;;;;;;;;;;;2.44;98.93;97749.53;5014814;28;19944;-76
2021/12/16 04:31:25;;;;;;;;;;;;;;;2.46;98.99;97751.97;5014685;28;19922;-75
2021/12/16 04:33:52;;;;;;;;;;;;;;;2.49;99.32;97754.28;5017040;28;19921;-77
2021/12/16 04:36:18;;;;;;;;;;;;;;;2.57;99.83;97749.16;5013729;28;19921;-77
2021/12/16 04:38:45;;;;;;;;;;;;;;;2.50;99.61;97758.50;5015807;28;19921;-76
2021/12/16 04:41:13;;;;;;;;;;;;;;;2.46;99.58;97751.97;5013872;28;19922;-77
2021/12/16 04:43:40;;;;;;;;;;;;;;;2.44;99.74;97754.72;5015814;28;19991;-78
2021/12/16 04:46:06;;;;;;;;;;;;;;;2.52;100.00;97753.97;5014936;28;19975;-76
2021/12/16 04:48:34;;;;;;;;;;;;;;;2.49;100.00;97746.50;5013801;28;20388;-77
2021/12/16 04:51:01;;;;;;;;;;;;;;;2.48;100.00;97752.66;5016025;28;19921;-77
2021/12/16 04:53:26;;;;;;;;;;;;;;;2.49;100.00;97754.28;5017396;28;20266;-76
2021/12/16 04:55:52;;;;;;;;;;;;;;;2.52;100.00;97761.75;5012965;28;19936;-76
2021/12/16 04:58:18;;;;;;;;;;;;;;;2.51;100.00;97767.94;5017053;28;19941;-76
2021/12/16 05:00:43;;;;;;;;;;;;;;;2.55;100.00;97769.28;5016226;28;20381;-76
2021/12/16 05:03:08;;;;;;;;;;;;;;;2.52;100.00;97772.16;5013492;28;19925;-76
2021/12/16 05:05:34;;;;;;;;;;;;;;;2.54;100.00;97772.84;5000596;28;20393;-75
2021/12/16 05:08:01;;;;;;;;;;;;;;;2.51;100.00;97770.53;4994419;28;19921;-76
2021/12/16 05:10:26;;;;;;;;;;;;;;;2.44;100.00;97761.69;4994306;28;20305;-75
2021/12/16 05:12:55;;;;;;;;;;;;;;;2.54;100.00;97768.47;5002999;28;19920;-75
2021/12/16 05:15:28;;;;;;;;;;;;;;;2.50;100.00;97772.31;5015184;28;19910;-75
2021/12/16 05:17:55;;;;;;;;;;;;;;;2.36;100.00;97780.59;5002546;28;20432;-76
2021/12/16 05:20:22;;;;;;;;;;;;;;;2.35;100.00;97778.94;4994821;28;20278;-75
2021/12/16 05:27:58;;;;;;;;;;;;;;;2.27;100.00;97795.28;4994892;28;19921;-75
2021/12/16 05:30:26;;;;;;;;;;;;;;;2.33;100.00;97791.28;4995296;28;20289;-76
2021/12/16 05:32:51;;;;;;;;;;;;;;;2.38;100.00;97793.44;4995409;28;19993;-77
2021/12/16 05:35:18;;;;;;;;;;;;;;;2.40;100.00;97786.31;4995278;28;20029;-77
2021/12/16 05:37:45;;;;;;;;;;;;;;;2.29;100.00;97795.13;4995903;28;19952;-77
2021/12/16 05:40:12;;;;;;;;;;;;;;;2.21;100.00;97788.06;5001094;28;19929;-78
2021/12/16 05:42:39;;;;;;;;;;;;;;;2.32;100.00;97785.25;4998522;28;19922;-76
2021/12/16 05:45:05;;;;;;;;;;;;;;;2.35;100.00;97790.16;4993626;28;19921;-77
2021/12/16 05:47:30;;;;;;;;;;;;;;;2.34;100.00;97793.72;4994802;28;20021;-77
2021/12/16 05:49:58;;;;;;;;;;;;;;;2.45;100.00;97795.31;4998349;28;19968;-77
2021/12/16 05:52:23;;;;;;;;;;;;;;;2.37;100.00;97792.63;5026514;28;19925;-76
2021/12/16 05:54:48;;;;;;;;;;;;;;;2.31;100.00;97796.63;5014309;28;19975;-77
2021/12/16 05:57:14;;;;;;;;;;;;;;;2.33;100.00;97801.66;5017496;28;19952;-77
2021/12/16 05:59:41;;;;;;;;;;;;;;;2.31;100.00;97795.78;5004287;28;19922;-75
2021/12/16 06:02:07;;;;;;;;;;;;;;;2.25;100.00;97794.56;4995950;28;20012;-76
2021/12/16 06:04:33;;;;;;;;;;;;;;;2.26;100.00;97796.25;4996082;28;19926;-76
2021/12/16 06:06:59;;;;;;;;;;;;;;;2.35;100.00;97792.75;5008585;28;19921;-78
2021/12/16 06:09:24;;;;;;;;;;;;;;;2.31;100.00;97803.56;5019796;28;20044;-78
2021/12/16 06:11:52;;;;;;;;;;;;;;;2.31;100.00;97809.59;5018135;28;19921;-77
2021/12/16 06:27:42;;;;;;;;;;;;;;;2.43;100.00;97822.41;5018459;28;19928;-76
2021/12/16 06:30:09;;;;;;;;;;;;;;;2.45;100.00;97830.84;5018049;28;19921;-77
2021/12/16 06:32:36;;;;;;;;;;;;;;;2.43;100.00;97843.16;5018005;28;19936;-77
2021/12/16 06:35:03;;;;;;;;;;;;;;;2.48;100.00;97839.19;5017054;28;19921;-77
2021/12/16 06:37:30;;;;;;;;;;;;;;;2.37;100.00;97839.38;5018462;28;20312;-77
2021/12/16 06:39:56;;;;;;;;;;;;;;;2.42;100.00;97838.91;5018533;28;20012;-77
2021/12/16 06:42:21;;;;;;;;;;;;;;;2.46;100.00;97827.28;5018695;28;19965;-77
2021/12/16 06:44:53;;;;;;;;;;;;;;;2.60;100.00;97824.22;5020711;28;19932;-77
2021/12/16 06:47:24;;;;;;;;;;;;;;;2.61;100.00;97836.22;5018503;28;19921;-76
2021/12/16 06:49:54;;;;;;;;;;;;;;;2.69;100.00;97838.94;5018343;28;19922;-77
2021/12/16 06:52:26;;;;;;;;;;;;;;;2.58;99.79;97842.53;5019349;28;20219;-77
2021/12/16 07:00:10;;;;;;;;;;;;;;;2.67;99.57;97843.44;5020518;28;19960;-77
2021/12/16 07:02:48;;;;;;;;;;;;;;;2.61;99.64;97844.03;4999482;28;19926;-76
2021/12/16 07:05:16;;;;;;;;;;;;;;;2.65;100.00;97841.97;4999570;28;20408;-78
2021/12/16 07:07:42;;;;;;;;;;;;;;;2.63;99.75;97847.28;5011668;28;19922;-75
2021/12/16 07:10:12;;;;;;;;;;;;;;;2.60;100.00;97848.41;5037562;28;19929;-77
2021/12/16 07:12:46;;;;;;;;;;;;;;;2.68;99.99;97850.25;5021166;28;19921;-75
2021/12/16 07:15:13;;;;;;;;;;;;;;;2.74;99.99;97854.06;5014921;28;19921;-75
2021/12/16 07:17:40;;;;;;;;;;;;;;;2.71;100.00;97851.75;5014263;28;19922;-76
2021/12/16 07:20:08;;;;;;;;;;;;;;;2.62;100.00;97849.06;5015799;28;19925;-76
2021/12/16 07:22:37;;;;;;;;;;;;;;;2.61;100.00;97844.03;5016081;28;20008;-76
2021/12/16 07:25:03;;;;;;;;;;;;;;;2.53;100.00;97851.69;5016272;23;20459;-73
2021/12/16 07:27:28;;;;;;;;;;;;;;;2.60;100.00;97852.78;4996250;28;19926;-72
2021/12/16 07:29:54;;;;;;;;;;;;;;;2.56;100.00;97838.44;4987446;28;19957;-77
2021/12/16 07:32:19;;;;;;;;;;;;;;;2.53;100.00;97856.91;4994787;28;20397;-74
2021/12/16 07:34:47;;;;;;;;;;;;;;;2.54;100.00;97856.78;4984238;28;19926;-76
2021/12/16 07:37:14;;;;;;;;;;;;;;;2.67;100.00;97856.44;4977576;28;19928;-78
2021/12/16 07:39:45;;;;;;;;;;;;;;;2.80;100.00;97851.72;4996065;28;19926;-77
2021/12/16 07:42:13;;;;;;;;;;;;;;;2.73;100.00;97853.25;4996010;28;20004;-77
2021/12/16 07:44:41;;;;;;;;;;;;;;;2.72;100.00;97854.22;4993941;28;19922;-76
2021/12/16 07:47:07;;;;;;;;;;;;;;;2.76;100.00;97850.38;4994551;28;20415;-77
2021/12/16 07:49:34;;;;;;;;;;;;;;;2.78;100.00;97848.44;4995167;28;20393;-76
2021/12/16 07:52:00;;;;;;;;;;;;;;;2.82;100.00;97852.38;4994135;28;20338;-77
2021/12/16 07:54:28;;;;;;;;;;;;;;;2.75;100.00;97861.72;4994656;28;19930;-78
2021/12/16 07:56:59;;;;;;;;;;;;;;;2.68;100.00;97862.44;4996031;28;19921;-77
2021/12/16 07:59:25;;;;;;;;;;;;;;;2.73;100.00;97868.81;4996865;28;19922;-77
2021/12/16 08:01:51;;;;;;;;;;;;;;;2.81;100.00;97875.91;5012166;28;19948;-75
2021/12/16 08:04:21;;;;;;;;;;;;;;;2.81;100.00;97868.94;5000854;28;19922;-76
2021/12/16 08:06:51;;;;;;;;;;;;;;;2.94;99.77;97872.94;4996694;28;19922;-77
2021/12/16 08:09:18;;;;;;;;;;;;;;;2.93;99.79;97877.34;4995655;28;20368;-76
2021/12/16 08:11:44;;;;;;;;;;;;;;;2.92;99.82;97885.28;4997116;28;19928;-76
2021/12/16 08:14:11;;;;;;;;;;;;;;;3.05;99.76;97896.13;4998677;28;19968;-76
2021/12/16 08:16:37;;;;;;;;;;;;;;;3.00;98.67;97888.78;4996135;28;19949;-75
2021/12/16 08:19:03;;;;;;;;;;;;;;;2.95;98.98;97895.38;4996085;28;19984;-76
2021/12/16 08:21:31;;;;;;;;;;;;;;;2.93;99.06;97902.53;4995335;28;20036;-76
2021/12/16 08:23:57;;;;;;;;;;;;;;;2.88;99.10;97900.34;4993904;28;20362;-76
2021/12/16 08:26:23;;;;;;;;;;;;;;;2.85;99.29;97901.47;4995964;28;20016;-77
2021/12/16 08:28:48;;;;;;;;;;;;;;;2.85;99.99;97906.66;4996423;28;20416;-78
2021/12/16 08:31:15;;;;;;;;;;;;;;;2.87;99.88;97909.13;4994810;28;19973;-77
2021/12/16 08:33:41;;;;;;;;;;;;;;;2.89;100.00;97920.16;4997113;28;19926;-78
2021/12/16 08:36:07;;;;;;;;;;;;;;;2.92;99.60;97922.50;4995839;28;19929;-77
2021/12/16 08:38:33;;;;;;;;;;;;;;;2.93;100.00;97931.94;4995296;28;20013;-77
2021/12/16 08:41:00;;;;;;;;;;;;;;;2.96;99.66;97928.19;4994928;28;19961;-78
2021/12/16 08:43:26;;;;;;;;;;;;;;;3.01;99.50;97933.78;4996195;28;19925;-77
2021/12/16 08:45:52;;;;;;;;;;;;;;;3.02;99.00;97932.84;4994223;28;19928;-77
2021/12/16 08:48:18;;;;;;;;;;;;;;;3.00;99.12;97927.78;4995066;28;20005;-77
2021/12/16 08:50:46;;;;;;;;;;;;;;;3.01;98.67;97920.78;4994905;28;19921;-77
2021/12/16 08:53:12;;;;;;;;;;;;;;;3.03;98.97;97937.88;4996416;28;19921;-76
2021/12/16 08:55:38;;;;;;;;;;;;;;;3.06;98.52;97931.56;4995191;28;19922;-77
2021/12/16 08:58:04;;;;;;;;;;;;;;;3.05;98.38;97935.13;4993474;28;19948;-77
2021/12/16 09:00:32;;;;;;;;;;;;;;;3.08;97.73;97927.06;4994575;28;19921;-76
2021/12/16 09:02:58;;;;;;;;;;;;;;;3.04;97.58;97933.50;4995214;28;19968;-76
2021/12/16 09:05:25;;;;;;;;;;;;;;;2.99;97.82;97923.53;4995457;28;20353;-78
2021/12/16 09:07:51;;;;;;;;;;;;;;;3.07;98.35;97930.63;5016071;28;19933;-77
2021/12/16 09:10:21;;;;;;;;;;;;;;;3.11;98.37;97916.34;5007719;28;19922;-76
2021/12/16 09:15:15;;;;;;;;;;;;;;;3.22;97.96;97918.75;4995676;28;19921;-77
2021/12/16 09:17:41;;;;;;;;;;;;;;;3.20;96.62;97936.28;4999096;28;19922;-76
2021/12/16 09:20:07;;;;;;;;;;;;;;;3.25;96.37;97947.06;4997112;28;20036;-77
2021/12/16 09:22:34;;;;;;;;;;;;;;;3.13;96.88;97956.84;4998109;28;19925;-76
2021/12/16 09:24:59;;;;;;;;;;;;;;;3.09;96.63;97944.28;4995828;28;20183;-76
2021/12/16 09:27:26;;;;;;;;;;;;;;;3.14;96.96;97960.28;4995832;28;20330;-76
2021/12/16 09:29:55;;;;;;;;;;;;;;;3.18;97.24;97963.41;4995654;28;19932;-77
2021/12/16 09:32:23;;;;;;;;;;;;;;;3.20;97.01;97959.69;4994193;28;19921;-78
2021/12/16 09:34:50;;;;;;;;;;;;;;;3.37;96.74;97963.28;4995782;28;19984;-77
2021/12/16 09:37:16;;;;;;;;;;;;;;;3.22;96.71;97959.53;4997907;28;19930;-75
2021/12/16 09:39:45;;;;;;;;;;;;;;;3.31;96.38;97967.28;4995701;28;20474;-77
2021/12/16 09:42:10;;;;;;;;;;;;;;;3.49;96.20;97963.88;4996416;28;19991;-78
2021/12/16 09:44:36;;;;;;;;;;;;;;;3.39;95.92;97966.53;4993708;28;19926;-78
2021/12/16 09:47:03;;;;;;;;;;;;;;;3.34;96.43;97966.19;4994717;28;20306;-77
2021/12/16 09:49:29;;;;;;;;;;;;;;;3.49;96.27;97964.69;4996484;28;19929;-76
2021/12/16 09:51:55;;;;;;;;;;;;;;;3.52;96.13;97960.97;4995614;28;19922;-78
2021/12/16 09:54:23;;;;;;;;;;;;;;;3.48;95.19;97954.44;4998532;28;19968;-77
2021/12/16 09:56:51;;;;;;;;;;;;;;;3.43;95.39;97958.28;4998586;28;19929;-77
2021/12/16 09:59:17;;;;;;;;;;;;;;;3.52;95.30;97955.78;4997142;28;20428;-76
2021/12/16 10:01:49;;;;;;;;;;;;;;;3.55;95.83;97945.06;5000314;28;19921;-77
2021/12/16 10:04:19;;;;;;;;;;;;;;;3.50;95.31;97947.28;5000642;28;19985;-76
2021/12/16 10:06:46;;;;;;;;;;;;;;;3.49;95.83;97949.06;5013693;28;19926;-76
2021/12/16 10:09:14;;;;;;;;;;;;;;;3.46;95.29;97936.38;5017942;28;19910;-76
2021/12/16 10:11:41;;;;;;;;;;;;;;;3.52;95.75;97940.16;5017968;28;19944;-77
2021/12/16 10:19:25;;;;;;;;;;;;;;;3.62;94.88;97946.94;5017622;28;19932;-76
2021/12/16 10:21:51;;;;;;;;;;;;;;;3.72;94.81;97946.06;5001612;28;19953;-76
2021/12/16 10:24:26;;;;;;;;;;;;;;;3.69;94.56;97947.16;4997991;28;20385;-76
2021/12/16 10:27:04;;;;;;;;;;;;;;;3.68;93.93;97937.72;4998016;28;19922;-76
2021/12/16 10:29:34;;;;;;;;;;;;;;;3.77;94.16;97936.00;4997558;28;19928;-76
2021/12/16 10:31:59;;;;;;;;;;;;;;;3.71;93.86;97934.78;4996116;28;20004;-76
2021/12/16 10:34:27;;;;;;;;;;;;;;;3.73;93.79;97935.47;4996070;28;20033;-77
2021/12/16 10:36:52;;;;;;;;;;;;;;;3.75;93.32;97935.31;4998371;28;19922;-77
2021/12/16 10:39:22;;;;;;;;;;;;;;;3.77;93.13;97943.81;4996333;28;20020;-77
2021/12/16 10:41:48;;;;;;;;;;;;;;;3.67;93.77;97936.09;4997701;28;20393;-77
2021/12/16 10:44:17;;;;;;;;;;;;;;;3.84;93.73;97934.44;5000750;28;19922;-77
2021/12/16 10:46:45;;;;;;;;;;;;;;;3.81;94.04;97932.13;5000046;28;20450;-76
2021/12/16 10:49:12;;;;;;;;;;;;;;;3.82;93.47;97932.00;4997787;28;20359;-75
2021/12/16 10:51:41;;;;;;;;;;;;;;;3.95;94.09;97936.78;4998142;28;20385;-76
2021/12/16 10:54:15;;;;;;;;;;;;;;;3.99;92.30;97932.94;4998017;28;19928;-76
2021/12/16 10:56:44;;;;;;;;;;;;;;;3.86;92.37;97928.09;4997737;28;19922;-74
2021/12/16 10:59:13;;;;;;;;;;;;;;;4.02;92.51;97937.00;4997624;28;20362;-75
2021/12/16 11:01:41;;;;;;;;;;;;;;;4.05;92.21;97939.31;4997522;28;19922;-77
2021/12/16 11:04:10;;;;;;;;;;;;;;;4.00;92.06;97944.97;4996082;28;19960;-77
2021/12/16 11:06:37;;;;;;;;;;;;;;;3.98;91.77;97936.47;4997319;28;20021;-76
2021/12/16 11:09:21;;;;;;;;;;;;;;;3.84;92.13;97929.22;4997098;28;19922;-75
2021/12/16 11:11:46;;;;;;;;;;;;;;;3.98;92.67;97936.47;4997933;28;19925;-76
2021/12/16 11:14:12;;;;;;;;;;;;;;;4.09;91.65;97933.66;4996243;28;19921;-77
2021/12/16 11:16:37;;;;;;;;;;;;;;;4.05;91.11;97927.09;4997754;28;19929;-75
2021/12/16 11:19:03;;;;;;;;;;;;;;;4.05;91.67;97921.09;4997533;28;19921;-77
2021/12/16 11:21:39;;;;;;;;;;;;;;;4.22;90.95;97918.41;4998192;28;19922;-77
2021/12/16 11:24:21;;;;;;;;;;;;;;;4.08;91.38;97912.94;4998572;28;19921;-77
2021/12/16 11:26:47;;;;;;;;;;;;;;;4.16;90.79;97920.81;4997134;28;19949;-75
2021/12/16 11:29:12;;;;;;;;;;;;;;;4.28;90.82;97917.00;4997667;28;19928;-77
2021/12/16 11:31:39;;;;;;;;;;;;;;;4.34;90.69;97918.97;4998180;28;19949;-76
2021/12/16 11:34:07;;;;;;;;;;;;;;;4.42;89.42;97923.44;4998177;28;19960;-77
2021/12/16 11:36:37;;;;;;;;;;;;;;;4.54;90.85;97927.41;4998882;28;19952;-76
2021/12/16 11:39:05;;;;;;;;;;;;;;;4.60;90.32;97924.16;5008757;28;19921;-76
2021/12/16 11:41:31;;;;;;;;;;;;;;;4.52;88.64;97925.91;5011721;28;20016;-76
2021/12/16 11:44:07;;;;;;;;;;;;;;;4.47;89.12;97915.97;5011999;28;19925;-77
2021/12/16 11:46:34;;;;;;;;;;;;;;;4.41;88.74;97911.34;5011757;28;19928;-74
2021/12/16 11:49:05;;;;;;;;;;;;;;;4.44;88.97;97924.91;5001626;28;20011;-76
2021/12/16 11:51:34;;;;;;;;;;;;;;;4.45;89.44;97923.91;5001073;28;19921;-77
2021/12/16 11:54:02;;;;;;;;;;;;;;;4.47;89.73;97929.81;4997842;28;19922;-77
2021/12/16 11:56:36;;;;;;;;;;;;;;;4.66;89.77;97927.94;4997564;28;19922;-76
2021/12/16 11:59:01;;;;;;;;;;;;;;;4.57;88.38;97931.47;4998367;28;20329;-77
2021/12/16 12:01:27;;;;;;;;;;;;;;;4.45;87.87;97923.91;4997752;28;20423;-77
2021/12/16 12:03:59;;;;;;;;;;;;;;;4.63;88.60;97929.06;4997211;28;20305;-76
2021/12/16 12:06:26;;;;;;;;;;;;;;;4.86;88.17;97926.72;4998290;28;19989;-76
2021/12/16 12:08:54;;;;;;;;;;;;;;;4.63;87.55;97929.06;5004563;28;19922;-76
2021/12/16 12:11:23;;;;;;;;;;;;;;;4.44;89.59;97931.91;4997983;28;19922;-76
2021/12/16 12:13:50;;;;;;;;;;;;;;;4.56;89.29;97935.06;4998159;28;19933;-75
2021/12/16 12:16:17;;;;;;;;;;;;;;;4.71;88.69;97931.72;4994579;28;20369;-77
2021/12/16 12:18:43;;;;;;;;;;;;;;;4.24;88.91;97925.25;4997334;28;20016;-75
2021/12/16 12:21:23;;;;;;;;;;;;;;;4.50;89.71;97927.84;4997817;28;19921;-76
2021/12/16 12:23:49;;;;;;;;;;;;;;;4.26;89.31;97933.75;4995479;28;20321;-75
2021/12/16 12:26:16;;;;;;;;;;;;;;;4.23;89.97;97934.88;4996814;28;19926;-76
2021/12/16 12:28:46;;;;;;;;;;;;;;;4.57;88.56;97931.47;4995733;28;19921;-76
2021/12/16 12:31:13;;;;;;;;;;;;;;;4.38;88.73;97928.13;4997186;28;19922;-78
2021/12/16 12:33:39;;;;;;;;;;;;;;;4.47;88.43;97931.59;4996126;28;19922;-76
2021/12/16 12:36:05;;;;;;;;;;;;;;;4.40;89.74;97931.38;4996966;28;19968;-76
2021/12/16 12:38:34;;;;;;;;;;;;;;;4.55;89.18;97928.22;4995388;28;19926;-76
2021/12/16 12:41:02;;;;;;;;;;;;;;;4.65;89.07;97919.31;4996104;28;19921;-76
2021/12/16 12:43:29;;;;;;;;;;;;;;;4.71;88.60;97925.69;4996074;28;20004;-76
2021/12/16 12:45:56;;;;;;;;;;;;;;;4.77;89.04;97922.44;4996199;28;20301;-77
2021/12/16 12:48:21;;;;;;;;;;;;;;;4.80;88.07;97924.75;4996883;28;20313;-76
2021/12/16 12:50:48;;;;;;;;;;;;;;;4.87;87.54;97917.91;4997245;28;19921;-77
2021/12/16 12:53:16;;;;;;;;;;;;;;;4.80;88.14;97922.13;4998656;28;19925;-76
2021/12/16 12:55:44;;;;;;;;;;;;;;;4.89;87.54;97918.56;4998648;28;19945;-75
2021/12/16 12:58:11;;;;;;;;;;;;;;;5.00;87.08;97923.53;4995814;28;19929;-76
2021/12/16 13:00:37;;;;;;;;;;;;;;;4.93;87.54;97916.47;4997542;28;19926;-78
2021/12/16 13:03:06;;;;;;;;;;;;;;;4.94;87.47;97913.69;4996719;28;19922;-77
2021/12/16 13:05:32;;;;;;;;;;;;;;;4.71;86.46;97916.06;4996955;28;20374;-77
2021/12/16 13:08:00;;;;;;;;;;;;;;;4.88;87.67;97903.91;4996089;28;19976;-76
2021/12/16 13:10:30;;;;;;;;;;;;;;;4.93;87.03;97901.63;4996764;28;19922;-76
2021/12/16 13:13:22;;;;;;;;;;;;;;;4.96;87.23;97909.16;4996417;28;19968;-77
2021/12/16 13:15:55;;;;;;;;;;;;;;;4.96;87.24;97896.13;4994279;28;19945;-77
2021/12/16 13:23:45;;;;;;;;;;;;;;;5.03;85.98;97891.09;5008189;23;19997;-74
2021/12/16 13:31:21;;;;;;;;;;;;;;;5.41;84.01;97897.50;4995159;28;19993;-74
2021/12/16 13:33:56;;;;;;;;;;;;;;;5.48;83.64;97890.66;4994531;28;19945;-74
2021/12/16 13:36:39;;;;;;;;;;;;;;;5.43;84.09;97895.53;4993181;28;19922;-74
2021/12/16 13:39:07;;;;;;;;;;;;;;;5.14;84.81;97893.38;4994971;28;20348;-74
2021/12/16 13:41:34;;;;;;;;;;;;;;;5.13;85.61;97893.56;4995497;28;19926;-74
2021/12/16 13:44:03;;;;;;;;;;;;;;;5.09;85.41;97892.22;4995270;28;20003;-73
2021/12/16 13:46:40;;;;;;;;;;;;;;;5.16;85.20;97911.47;4995861;28;20165;-73
2021/12/16 14:02:56;;;;;;;;;;;;;;;5.16;85.68;97916.69;4994775;28;19921;-73
2021/12/16 14:05:29;;;;;;;;;;;;;;;5.16;86.46;97911.47;4994499;28;19921;-74
2021/12/16 14:07:58;;;;;;;;;;;;;;;5.13;86.95;97920.44;4996061;28;19929;-74
2021/12/16 14:10:33;;;;;;;;;;;;;;;4.94;87.47;97912.88;4994734;28;19928;-73
2021/12/16 14:16:12;;;;;;;;;;;;;;;4.97;87.90;97918.63;4993965;28;19968;-73
2021/12/16 14:24:48;;;;;;;;;;;;;;;4.91;87.93;97929.69;4993941;28;19957;-74
2021/12/16 14:34:06;;;;;;;;;;;;;;;4.76;89.56;97949.50;4995130;28;20011;-73
2021/12/16 14:43:53;;;;;;;;;;;;;;;4.59;91.70;97948.59;4997664;28;19961;-74
2021/12/16 14:46:25;;;;;;;;;;;;;;;4.52;91.04;97949.34;4995945;28;20396;-75
2021/12/16 14:48:51;;;;;;;;;;;;;;;4.59;91.83;97953.00;5000839;28;19954;-75
2021/12/16 14:51:17;;;;;;;;;;;;;;;4.61;91.18;97957.06;4997113;28;19921;-74
2021/12/16 14:53:44;;;;;;;;;;;;;;;4.62;91.69;97955.28;4997301;28;19984;-74
2021/12/16 14:56:11;;;;;;;;;;;;;;;4.57;91.26;97963.56;4996982;28;20344;-74
2021/12/16 14:58:39;;;;;;;;;;;;;;;4.52;91.42;97954.56;5014100;28;19932;-74
2021/12/16 15:01:07;;;;;;;;;;;;;;;4.55;91.32;97951.66;5007376;28;19933;-74
2021/12/16 15:03:37;;;;;;;;;;;;;;;4.34;91.30;97965.06;4999113;28;19937;-75
2021/12/16 15:06:03;;;;;;;;;;;;;;;4.29;92.24;97965.50;4997555;28;19929;-74
2021/12/16 15:08:39;;;;;;;;;;;;;;;4.44;92.21;97971.78;4995472;28;20012;-74
2021/12/16 15:11:12;;;;;;;;;;;;;;;4.36;92.33;97981.34;4996399;28;19932;-73
2021/12/16 15:13:44;;;;;;;;;;;;;;;4.15;93.06;97969.50;4997201;28;20008;-74
2021/12/16 15:43:04;;;;;;;;;;;;;;;4.34;92.98;97976.28;4997968;28;19932;-74
2021/12/16 15:45:31;;;;;;;;;;;;;;;4.26;93.20;97971.03;4996263;28;19921;-73
2021/12/16 15:47:57;;;;;;;;;;;;;;;4.38;92.93;97980.22;4996111;28;19922;-73
2021/12/16 15:50:24;;;;;;;;;;;;;;;4.28;92.60;97974.28;4995547;28;20024;-73
2021/12/16 15:52:51;;;;;;;;;;;;;;;4.13;93.16;97975.81;4995567;28;19922;-74
2021/12/16 15:55:21;;;;;;;;;;;;;;;4.23;93.40;97976.53;4995084;28;20369;-73
2021/12/16 15:57:48;;;;;;;;;;;;;;;4.17;94.05;97971.94;4994207;28;19921;-73
2021/12/16 16:00:17;;;;;;;;;;;;;;;4.02;93.98;97978.66;4997178;28;19974;-73
2021/12/16 16:02:43;;;;;;;;;;;;;;;3.93;94.43;97983.81;4994405;28;19922;-74
2021/12/16 16:05:11;;;;;;;;;;;;;;;3.85;94.95;97988.13;4995299;28;19925;-74
2021/12/16 16:07:38;;;;;;;;;;;;;;;3.85;95.17;97986.34;4994030;28;19922;-73
2021/12/16 16:10:05;;;;;;;;;;;;;;;3.88;95.09;97990.44;4995586;28;20385;-74
2021/12/16 16:12:33;;;;;;;;;;;;;;;3.97;95.67;97986.09;4995342;28;19929;-73
2021/12/16 16:15:15;;;;;;;;;;;;;;;3.91;95.17;97987.53;4995200;28;19925;-73
2021/12/16 16:17:55;;;;;;;;;;;;;;;4.07;95.40;97979.03;4995668;28;20012;-75
2021/12/16 16:20:21;;;;;;;;;;;;;;;4.05;95.58;97973.16;4994171;28;19933;-73
2021/12/16 16:22:46;;;;;;;;;;;;;;;3.97;95.35;97980.91;4995659;28;19922;-74
2021/12/16 16:25:12;;;;;;;;;;;;;;;4.06;95.13;97985.22;4995147;28;20300;-75
2021/12/16 16:27:38;;;;;;;;;;;;;;;3.97;95.51;97980.91;4995447;28;19968;-75
2021/12/16 16:30:05;;;;;;;;;;;;;;;3.93;96.08;97986.41;4995228;28;20353;-75
2021/12/16 16:32:51;;;;;;;;;;;;;;;4.00;95.19;97986.63;4998759;28;19921;-74
2021/12/16 16:35:18;;;;;;;;;;;;;;;4.06;94.78;97986.03;4995457;28;19934;-74
2021/12/16 16:37:44;;;;;;;;;;;;;;;4.04;95.71;97981.94;4996297;28;19964;-75
2021/12/16 16:40:10;;;;;;;;;;;;;;;4.07;96.09;97987.66;5011381;28;19926;-73
2021/12/16 16:42:38;;;;;;;;;;;;;;;4.12;95.42;97989.81;4997028;28;19933;-73
2021/12/16 16:45:05;;;;;;;;;;;;;;;4.01;95.24;97992.66;4995243;28;19930;-73
2021/12/16 16:47:35;;;;;;;;;;;;;;;3.99;95.76;97984.19;4995811;28;19922;-74
2021/12/16 16:50:01;;;;;;;;;;;;;;;3.88;96.07;97988.66;4996151;28;19921;-73
2021/12/16 16:52:29;;;;;;;;;;;;;;;3.96;96.04;97985.28;4996244;28;19929;-74